Time;durP1;ratioP1;P1;durP2;ratioP2;P2;SDS_P1;SDS_P2;PMS_P1;PMS_P2;Temp;Humidity;BMP_temperature;BMP_pressure;BME280_temperature;BME280_humidity;BME280_pressure;Samples;Min_cycle;Max_cycle;Signal;HPM_P1;HPM_P2
2024/01/09 00:01:41;;;;;;;6.57;3.33;;;;;;;;;;5058684;28;20207;-70
2024/01/09 00:04:06;;;;;;;6.90;2.90;;;;;;;;;;5064944;28;20245;-70
2024/01/09 00:06:32;;;;;;;6.83;3.17;;;;;;;;;;5060376;28;20314;-72
2024/01/09 00:08:58;;;;;;;8.57;4.23;;;;;;;;;;5069174;28;20212;-68
2024/01/09 00:11:24;;;;;;;10.13;4.57;;;;;;;;;;5062645;28;20233;-71
2024/01/09 00:13:50;;;;;;;9.30;4.23;;;;;;;;;;5063914;28;20212;-70
2024/01/09 00:16:16;;;;;;;13.60;5.13;;;;;;;;;;5068707;28;20214;-70
2024/01/09 00:18:42;;;;;;;8.80;4.07;;;;;;;;;;5062861;28;20213;-71
2024/01/09 00:21:08;;;;;;;9.40;3.87;;;;;;;;;;5083572;28;20213;-69
2024/01/09 00:23:34;;;;;;;9.20;4.17;;;;;;;;;;5083385;28;20247;-69
2024/01/09 00:26:01;;;;;;;11.20;5.27;;;;;;;;;;5065001;28;20222;-70
2024/01/09 00:28:27;;;;;;;13.40;4.30;;;;;;;;;;5065618;28;20181;-70
2024/01/09 00:30:53;;;;;;;9.63;4.20;;;;;;;;;;5067596;28;20207;-70
2024/01/09 00:33:19;;;;;;;8.87;4.30;;;;;;;;;;5083153;28;20206;-66
2024/01/09 00:35:45;;;;;;;10.53;4.60;;;;;;;;;;5063676;28;20589;-70
2024/01/09 00:38:11;;;;;;;10.30;3.70;;;;;;;;;;5063902;28;20306;-70
2024/01/09 00:40:37;;;;;;;10.43;4.63;;;;;;;;;;5070890;28;20208;-69
2024/01/09 00:43:03;;;;;;;9.20;4.10;;;;;;;;;;5070932;28;20189;-70
2024/01/09 00:45:29;;;;;;;11.77;4.00;;;;;;;;;;5071626;28;20223;-70
2024/01/09 00:47:55;;;;;;;7.47;3.50;;;;;;;;;;5066362;28;20213;-71
2024/01/09 00:50:21;;;;;;;8.90;5.13;;;;;;;;;;5071165;28;20223;-71
2024/01/09 00:52:47;;;;;;;10.10;3.63;;;;;;;;;;5064951;28;20208;-69
2024/01/09 00:55:13;;;;;;;7.07;3.70;;;;;;;;;;5071816;28;20215;-69
2024/01/09 00:57:39;;;;;;;10.97;4.60;;;;;;;;;;5070681;28;20209;-69
2024/01/09 01:00:05;;;;;;;11.23;3.97;;;;;;;;;;5070980;28;20209;-70
2024/01/09 01:02:31;;;;;;;13.67;4.77;;;;;;;;;;5071168;28;20397;-68
2024/01/09 01:04:57;;;;;;;9.10;4.00;;;;;;;;;;5086833;28;20354;-69
2024/01/09 01:07:23;;;;;;;12.17;4.27;;;;;;;;;;5071092;28;20192;-69
2024/01/09 01:09:49;;;;;;;9.77;4.00;;;;;;;;;;5070948;28;20208;-70
2024/01/09 01:12:15;;;;;;;9.83;4.20;;;;;;;;;;5071035;28;20257;-71
2024/01/09 01:14:41;;;;;;;10.73;4.17;;;;;;;;;;5070765;28;20713;-69
2024/01/09 01:17:07;;;;;;;10.60;4.07;;;;;;;;;;5070464;28;20220;-69
2024/01/09 01:19:33;;;;;;;10.83;4.67;;;;;;;;;;5070276;28;20542;-70
2024/01/09 01:21:59;;;;;;;11.17;3.73;;;;;;;;;;5071632;28;20189;-70
2024/01/09 01:24:25;;;;;;;10.13;3.87;;;;;;;;;;5070044;28;20705;-71
2024/01/09 01:26:51;;;;;;;11.33;3.97;;;;;;;;;;5062812;28;20206;-70
2024/01/09 01:29:17;;;;;;;8.53;4.10;;;;;;;;;;5071726;28;20690;-70
2024/01/09 01:31:45;;;;;;;8.60;3.47;;;;;;;;;;5071281;28;20212;-70
2024/01/09 01:34:11;;;;;;;8.90;4.63;;;;;;;;;;5071529;28;20204;-71
2024/01/09 01:36:37;;;;;;;9.90;3.67;;;;;;;;;;5072859;28;20231;-69
2024/01/09 01:39:04;;;;;;;8.37;3.87;;;;;;;;;;5071353;28;20232;-70
2024/01/09 01:41:30;;;;;;;4.77;2.90;;;;;;;;;;5088350;28;20221;-71
2024/01/09 01:43:56;;;;;;;9.60;3.77;;;;;;;;;;5093542;28;20242;-72
2024/01/09 01:46:22;;;;;;;10.40;3.97;;;;;;;;;;5088923;28;20185;-69
2024/01/09 01:48:48;;;;;;;12.03;3.47;;;;;;;;;;5088310;28;20273;-69
2024/01/09 01:51:14;;;;;;;9.03;4.43;;;;;;;;;;5086106;28;20230;-73
2024/01/09 01:53:40;;;;;;;8.87;4.13;;;;;;;;;;5094616;28;20274;-70
2024/01/09 01:56:06;;;;;;;6.83;3.03;;;;;;;;;;5085998;28;20260;-71
2024/01/09 01:58:33;;;;;;;7.60;3.47;;;;;;;;;;5078133;28;20618;-70
2024/01/09 02:01:00;;;;;;;9.87;4.87;;;;;;;;;;5065668;28;20200;-71
2024/01/09 02:03:26;;;;;;;9.07;4.00;;;;;;;;;;5057658;28;20298;-69
2024/01/09 02:05:52;;;;;;;6.83;4.57;;;;;;;;;;5052674;28;20212;-70
2024/01/09 02:08:20;;;;;;;10.37;3.63;;;;;;;;;;5069282;28;20246;-68
2024/01/09 02:10:46;;;;;;;10.60;3.90;;;;;;;;;;5069664;28;20202;-70
2024/01/09 02:13:13;;;;;;;9.67;4.13;;;;;;;;;;5086924;28;20696;-69
2024/01/09 02:15:39;;;;;;;10.20;3.23;;;;;;;;;;5069060;28;20219;-72
2024/01/09 02:18:05;;;;;;;8.13;3.27;;;;;;;;;;5067524;28;20214;-71
2024/01/09 02:20:31;;;;;;;9.80;3.60;;;;;;;;;;5068829;28;20216;-70
2024/01/09 02:22:57;;;;;;;7.30;3.10;;;;;;;;;;5085659;28;20212;-69
2024/01/09 02:25:23;;;;;;;9.10;3.63;;;;;;;;;;5070340;28;20187;-72
2024/01/09 02:27:58;;;;;;;8.13;3.53;;;;;;;;;;5070297;28;20219;-70
2024/01/09 02:30:25;;;;;;;16.03;4.03;;;;;;;;;;5069427;28;20391;-70
2024/01/09 02:32:51;;;;;;;6.73;3.27;;;;;;;;;;5069694;28;20261;-69
2024/01/09 02:35:17;;;;;;;7.00;2.97;;;;;;;;;;5069780;28;20223;-70
2024/01/09 02:37:43;;;;;;;8.30;2.90;;;;;;;;;;5069016;28;20200;-69
2024/01/09 02:40:09;;;;;;;12.27;3.60;;;;;;;;;;5064693;28;20199;-69
2024/01/09 02:42:35;;;;;;;7.00;2.83;;;;;;;;;;5066802;28;20220;-69
2024/01/09 02:45:01;;;;;;;6.80;3.00;;;;;;;;;;5069370;28;20357;-69
2024/01/09 02:47:27;;;;;;;12.70;3.73;;;;;;;;;;5084727;28;20209;-70
2024/01/09 02:49:53;;;;;;;10.80;3.87;;;;;;;;;;5069316;28;20256;-70
2024/01/09 02:52:19;;;;;;;11.77;3.77;;;;;;;;;;5070373;28;20183;-69
2024/01/09 02:54:46;;;;;;;9.87;3.33;;;;;;;;;;5069980;28;20215;-70
2024/01/09 02:57:12;;;;;;;5.67;2.60;;;;;;;;;;5066350;28;20208;-70
2024/01/09 02:59:39;;;;;;;10.37;3.23;;;;;;;;;;5084863;28;20256;-67
2024/01/09 03:02:05;;;;;;;9.20;3.80;;;;;;;;;;5066832;28;20222;-70
2024/01/09 03:04:31;;;;;;;9.97;3.00;;;;;;;;;;5065257;28;20184;-70
2024/01/09 03:06:57;;;;;;;8.63;3.53;;;;;;;;;;5059193;28;20681;-71
2024/01/09 03:09:24;;;;;;;6.40;3.10;;;;;;;;;;5069308;28;20211;-70
2024/01/09 03:11:50;;;;;;;8.40;3.47;;;;;;;;;;5066495;28;20751;-69
2024/01/09 03:14:16;;;;;;;13.67;4.33;;;;;;;;;;5064636;28;20235;-71
2024/01/09 03:16:42;;;;;;;15.20;4.43;;;;;;;;;;5059122;28;20698;-70
2024/01/09 03:19:08;;;;;;;9.93;3.73;;;;;;;;;;5066230;28;20188;-69
2024/01/09 03:21:34;;;;;;;10.60;4.30;;;;;;;;;;5067325;28;20728;-70
2024/01/09 03:24:00;;;;;;;11.67;3.90;;;;;;;;;;5084501;28;20258;-70
2024/01/09 03:26:26;;;;;;;12.90;3.37;;;;;;;;;;5068516;28;20219;-69
2024/01/09 03:28:52;;;;;;;7.83;3.37;;;;;;;;;;5068104;28;20318;-70
2024/01/09 03:31:21;;;;;;;11.07;3.87;;;;;;;;;;5084480;28;20616;-68
2024/01/09 03:33:47;;;;;;;8.80;3.73;;;;;;;;;;5062677;28;20674;-68
2024/01/09 03:36:13;;;;;;;11.27;3.80;;;;;;;;;;5067292;28;20223;-70
2024/01/09 03:38:40;;;;;;;9.27;3.10;;;;;;;;;;5061570;28;20322;-70
2024/01/09 03:41:06;;;;;;;11.73;3.47;;;;;;;;;;5065715;28;20230;-70
2024/01/09 03:43:32;;;;;;;5.13;2.30;;;;;;;;;;5062906;28;20807;-70
2024/01/09 03:45:58;;;;;;;7.87;3.67;;;;;;;;;;5062289;28;20180;-68
2024/01/09 03:48:25;;;;;;;5.43;2.53;;;;;;;;;;5065076;28;20207;-69
2024/01/09 03:50:51;;;;;;;10.57;4.57;;;;;;;;;;5057634;28;20351;-70
2024/01/09 03:53:17;;;;;;;8.67;3.83;;;;;;;;;;5066001;28;20294;-70
2024/01/09 03:55:43;;;;;;;13.33;4.73;;;;;;;;;;5067457;28;20206;-70
2024/01/09 03:58:11;;;;;;;13.63;4.13;;;;;;;;;;5062242;28;20631;-69
2024/01/09 04:00:37;;;;;;;18.13;4.93;;;;;;;;;;5081286;28;20589;-70
2024/01/09 04:03:04;;;;;;;6.30;2.97;;;;;;;;;;5066195;28;20219;-69
2024/01/09 04:05:30;;;;;;;13.27;4.00;;;;;;;;;;5065793;28;20207;-69
2024/01/09 04:07:56;;;;;;;9.37;4.33;;;;;;;;;;5067213;28;20289;-69
2024/01/09 04:10:22;;;;;;;9.17;3.07;;;;;;;;;;5066772;28;20720;-69
2024/01/09 04:12:48;;;;;;;11.20;4.17;;;;;;;;;;5063006;28;20204;-68
2024/01/09 04:15:14;;;;;;;10.70;4.20;;;;;;;;;;5068013;28;20304;-69
2024/01/09 04:17:40;;;;;;;8.73;4.33;;;;;;;;;;5057692;28;20220;-69
2024/01/09 04:20:08;;;;;;;9.47;4.10;;;;;;;;;;5059856;28;20221;-70
2024/01/09 04:22:34;;;;;;;15.00;4.07;;;;;;;;;;5065433;28;20232;-68
2024/01/09 04:25:00;;;;;;;11.70;4.83;;;;;;;;;;5059593;28;20184;-69
2024/01/09 04:27:26;;;;;;;7.83;3.73;;;;;;;;;;5063802;28;20298;-71
2024/01/09 04:29:52;;;;;;;9.23;2.97;;;;;;;;;;5055626;28;20242;-68
2024/01/09 04:32:18;;;;;;;12.70;3.50;;;;;;;;;;5060325;28;20866;-67
2024/01/09 04:34:44;;;;;;;9.93;3.27;;;;;;;;;;5063587;28;20682;-70
2024/01/09 04:37:10;;;;;;;12.33;4.33;;;;;;;;;;5083295;28;20187;-70
2024/01/09 04:39:36;;;;;;;12.90;4.77;;;;;;;;;;5061065;28;20207;-70
2024/01/09 04:42:02;;;;;;;12.70;3.57;;;;;;;;;;5066677;28;20280;-70
2024/01/09 04:44:28;;;;;;;9.90;3.33;;;;;;;;;;5060512;28;20207;-70
2024/01/09 04:46:54;;;;;;;10.87;4.17;;;;;;;;;;5062713;28;20249;-70
2024/01/09 04:49:20;;;;;;;14.53;5.20;;;;;;;;;;5067169;28;20186;-70
2024/01/09 04:51:46;;;;;;;13.57;4.93;;;;;;;;;;5059877;28;20725;-72
2024/01/09 04:54:12;;;;;;;13.43;4.43;;;;;;;;;;5083355;28;20207;-70
2024/01/09 04:56:38;;;;;;;12.37;4.77;;;;;;;;;;5061147;28;20220;-68
2024/01/09 04:59:04;;;;;;;7.40;3.40;;;;;;;;;;5057871;28;20215;-69
2024/01/09 05:01:30;;;;;;;9.03;3.93;;;;;;;;;;5064747;28;20260;-68
2024/01/09 05:03:56;;;;;;;15.03;5.33;;;;;;;;;;5062533;28;20254;-69
2024/01/09 05:06:22;;;;;;;8.23;3.37;;;;;;;;;;5063326;28;20222;-69
2024/01/09 05:08:48;;;;;;;8.53;4.43;;;;;;;;;;5061856;28;20211;-69
2024/01/09 05:11:14;;;;;;;11.67;4.10;;;;;;;;;;5062455;28;20723;-70
2024/01/09 05:13:40;;;;;;;8.80;4.57;;;;;;;;;;5062659;28;20190;-70
2024/01/09 05:16:06;;;;;;;11.83;4.57;;;;;;;;;;5083148;28;20211;-71
2024/01/09 05:18:32;;;;;;;14.67;4.53;;;;;;;;;;5081739;28;20650;-70
2024/01/09 05:20:58;;;;;;;10.23;4.00;;;;;;;;;;5065340;28;20707;-70
2024/01/09 05:23:25;;;;;;;18.43;4.37;;;;;;;;;;5063895;28;20214;-71
2024/01/09 05:25:51;;;;;;;13.07;4.80;;;;;;;;;;5057278;28;20208;-70
2024/01/09 05:28:17;;;;;;;13.70;4.30;;;;;;;;;;5069351;28;20175;-70
2024/01/09 05:30:43;;;;;;;12.57;4.17;;;;;;;;;;5064440;28;20234;-70
2024/01/09 05:33:09;;;;;;;14.93;4.53;;;;;;;;;;5068647;28;20300;-70
2024/01/09 05:35:35;;;;;;;12.43;4.27;;;;;;;;;;5068216;28;20226;-70
2024/01/09 05:38:01;;;;;;;14.57;3.60;;;;;;;;;;5062822;28;20219;-70
2024/01/09 05:40:28;;;;;;;7.33;3.43;;;;;;;;;;5086225;28;20214;-69
2024/01/09 05:42:54;;;;;;;9.53;3.87;;;;;;;;;;5068848;28;20207;-69
2024/01/09 05:45:20;;;;;;;12.50;3.83;;;;;;;;;;5070345;28;20215;-70
2024/01/09 05:47:46;;;;;;;16.50;5.63;;;;;;;;;;5069986;28;20649;-71
2024/01/09 05:50:12;;;;;;;11.27;4.00;;;;;;;;;;5070136;28;20211;-70
2024/01/09 05:52:38;;;;;;;14.00;4.53;;;;;;;;;;5070328;28;20188;-69
2024/01/09 05:55:05;;;;;;;16.87;4.60;;;;;;;;;;5071563;28;20701;-71
2024/01/09 05:57:31;;;;;;;9.97;3.83;;;;;;;;;;5070571;28;20294;-69
2024/01/09 05:59:57;;;;;;;14.00;4.27;;;;;;;;;;5070608;28;20218;-70
2024/01/09 06:02:24;;;;;;;8.93;3.63;;;;;;;;;;5070970;28;20303;-71
2024/01/09 06:04:50;;;;;;;6.03;3.17;;;;;;;;;;5069427;28;20212;-72
2024/01/09 06:07:17;;;;;;;15.00;4.77;;;;;;;;;;5070351;28;20175;-71
2024/01/09 06:09:43;;;;;;;12.13;3.23;;;;;;;;;;5069088;28;20211;-70
2024/01/09 06:12:09;;;;;;;8.40;2.93;;;;;;;;;;5070841;28;20208;-70
2024/01/09 06:14:35;;;;;;;3.93;2.97;;;;;;;;;;5068512;28;20207;-70
2024/01/09 06:17:01;;;;;;;7.97;2.37;;;;;;;;;;5087049;28;20234;-71
2024/01/09 06:19:28;;;;;;;8.87;3.43;;;;;;;;;;5071116;28;20218;-71
2024/01/09 06:21:54;;;;;;;13.70;4.10;;;;;;;;;;5069935;28;20296;-71
2024/01/09 06:24:21;;;;;;;15.37;3.40;;;;;;;;;;5070146;28;20348;-70
2024/01/09 06:26:47;;;;;;;6.90;3.30;;;;;;;;;;5067979;28;20260;-72
2024/01/09 06:29:13;;;;;;;7.07;3.57;;;;;;;;;;5069263;28;20224;-71
2024/01/09 06:31:40;;;;;;;10.83;3.33;;;;;;;;;;5069566;28;20731;-72
2024/01/09 06:34:07;;;;;;;8.00;3.40;;;;;;;;;;5070204;28;20660;-71
2024/01/09 06:36:33;;;;;;;3.60;2.27;;;;;;;;;;5069294;28;20251;-70
2024/01/09 06:38:59;;;;;;;8.77;2.97;;;;;;;;;;5069584;28;20234;-70
2024/01/09 06:41:25;;;;;;;9.73;2.40;;;;;;;;;;5069332;28;20809;-70
2024/01/09 06:43:51;;;;;;;4.23;2.17;;;;;;;;;;5069453;28;20235;-70
2024/01/09 06:46:17;;;;;;;2.20;2.03;;;;;;;;;;5070329;28;20556;-68
2024/01/09 06:48:43;;;;;;;5.77;2.63;;;;;;;;;;5069123;28;20211;-70
2024/01/09 06:51:09;;;;;;;9.20;3.13;;;;;;;;;;5065801;28;20240;-70
2024/01/09 06:53:35;;;;;;;8.77;3.43;;;;;;;;;;5069380;28;20239;-70
2024/01/09 06:56:01;;;;;;;7.70;3.50;;;;;;;;;;5066449;28;20306;-70
2024/01/09 06:58:27;;;;;;;7.13;2.37;;;;;;;;;;5069323;28;20253;-69
2024/01/09 07:00:53;;;;;;;11.30;3.17;;;;;;;;;;5066819;28;20232;-70
2024/01/09 07:03:19;;;;;;;5.83;2.27;;;;;;;;;;5068212;28;20212;-70
2024/01/09 07:05:45;;;;;;;14.93;3.10;;;;;;;;;;5069800;28;20286;-70
2024/01/09 07:08:11;;;;;;;19.40;4.07;;;;;;;;;;5069131;28;20714;-69
2024/01/09 07:10:37;;;;;;;4.20;3.17;;;;;;;;;;5069544;28;20210;-70
2024/01/09 07:13:03;;;;;;;7.47;2.03;;;;;;;;;;5069520;28;20288;-70
2024/01/09 07:15:29;;;;;;;2.17;1.73;;;;;;;;;;5084950;28;20295;-69
2024/01/09 07:17:55;;;;;;;6.77;1.67;;;;;;;;;;5068947;28;20250;-69
2024/01/09 07:20:21;;;;;;;9.23;3.27;;;;;;;;;;5068954;28;20207;-70
2024/01/09 07:22:48;;;;;;;4.43;3.60;;;;;;;;;;5068018;28;20222;-69
2024/01/09 07:25:14;;;;;;;2.17;1.30;;;;;;;;;;5069374;28;20219;-70
2024/01/09 07:27:40;;;;;;;6.40;2.17;;;;;;;;;;5067045;28;20230;-70
2024/01/09 07:30:07;;;;;;;8.13;1.90;;;;;;;;;;5068389;28;20621;-71
2024/01/09 07:32:33;;;;;;;12.37;3.53;;;;;;;;;;5068057;28;20762;-69
2024/01/09 07:35:00;;;;;;;3.03;1.67;;;;;;;;;;5063529;28;20220;-70
2024/01/09 07:37:26;;;;;;;3.40;2.30;;;;;;;;;;5068862;28;20187;-70
2024/01/09 07:39:52;;;;;;;3.00;2.27;;;;;;;;;;5066554;28;20219;-70
2024/01/09 07:42:18;;;;;;;8.50;3.10;;;;;;;;;;5068597;28;20395;-68
2024/01/09 07:44:44;;;;;;;18.53;3.90;;;;;;;;;;5068510;28;20480;-71
2024/01/09 07:47:11;;;;;;;3.87;1.77;;;;;;;;;;5083808;28;20206;-69
2024/01/09 07:49:38;;;;;;;5.97;3.37;;;;;;;;;;5067658;28;20646;-69
2024/01/09 07:52:04;;;;;;;7.83;3.50;;;;;;;;;;5067423;28;20689;-69
2024/01/09 07:54:30;;;;;;;2.37;1.47;;;;;;;;;;5068443;28;20211;-68
2024/01/09 07:56:56;;;;;;;9.10;3.17;;;;;;;;;;5067787;28;20217;-69
2024/01/09 07:59:22;;;;;;;9.67;3.87;;;;;;;;;;5068253;28;20204;-69
2024/01/09 08:01:54;;;;;;;3.73;2.37;;;;;;;;;;5068655;28;20211;-69
2024/01/09 08:04:21;;;;;;;9.83;3.17;;;;;;;;;;5067116;28;20198;-69
2024/01/09 08:06:47;;;;;;;10.90;3.43;;;;;;;;;;5063497;28;20202;-69
2024/01/09 08:09:13;;;;;;;3.83;3.10;;;;;;;;;;5067037;28;20298;-69
2024/01/09 08:11:39;;;;;;;6.63;2.27;;;;;;;;;;5062369;28;20828;-68
2024/01/09 08:14:05;;;;;;;11.97;3.53;;;;;;;;;;5068660;28;20205;-69
2024/01/09 08:16:31;;;;;;;2.17;1.83;;;;;;;;;;5067097;28;20211;-70
2024/01/09 08:18:57;;;;;;;9.43;2.80;;;;;;;;;;5066932;28;20188;-69
2024/01/09 08:21:23;;;;;;;2.83;1.30;;;;;;;;;;5068524;28;20215;-69
2024/01/09 08:23:49;;;;;;;17.27;5.03;;;;;;;;;;5063730;28;20207;-69
2024/01/09 08:26:15;;;;;;;14.47;4.03;;;;;;;;;;5068491;28;20280;-69
2024/01/09 08:28:41;;;;;;;3.37;2.67;;;;;;;;;;5067808;28;20530;-69
2024/01/09 08:31:07;;;;;;;11.13;3.90;;;;;;;;;;5066913;28;20708;-68
2024/01/09 08:33:34;;;;;;;20.33;2.43;;;;;;;;;;5068254;28;20524;-71
2024/01/09 08:36:00;;;;;;;6.23;2.37;;;;;;;;;;5062152;28;20220;-70
2024/01/09 08:38:26;;;;;;;4.40;1.73;;;;;;;;;;5067455;28;20221;-69
2024/01/09 08:40:55;;;;;;;5.77;2.47;;;;;;;;;;5067866;28;20298;-69
2024/01/09 08:43:21;;;;;;;12.40;4.30;;;;;;;;;;5065502;28;20662;-69
2024/01/09 08:45:49;;;;;;;9.20;3.13;;;;;;;;;;5066875;28;20202;-69
2024/01/09 08:48:15;;;;;;;5.53;2.27;;;;;;;;;;5064172;28;20868;-70
2024/01/09 08:50:41;;;;;;;12.67;3.83;;;;;;;;;;5066312;28;20213;-70
2024/01/09 08:53:07;;;;;;;10.93;3.60;;;;;;;;;;5065277;28;20589;-68
2024/01/09 08:55:34;;;;;;;6.53;2.63;;;;;;;;;;5064793;28;20204;-70
2024/01/09 08:58:00;;;;;;;13.67;4.17;;;;;;;;;;5060043;28;20292;-70
2024/01/09 09:00:26;;;;;;;15.43;5.67;;;;;;;;;;5065615;28;20594;-72
2024/01/09 09:02:52;;;;;;;12.27;4.17;;;;;;;;;;5064628;28;20210;-70
2024/01/09 09:05:18;;;;;;;9.33;4.17;;;;;;;;;;5066146;28;20207;-70
2024/01/09 09:07:45;;;;;;;16.87;6.63;;;;;;;;;;5070968;28;20236;-71
2024/01/09 09:10:11;;;;;;;3.27;2.97;;;;;;;;;;5066646;28;20206;-70
2024/01/09 09:12:37;;;;;;;9.87;3.63;;;;;;;;;;5069560;28;20212;-70
2024/01/09 09:15:03;;;;;;;7.00;1.23;;;;;;;;;;5070098;28;20226;-70
2024/01/09 09:17:30;;;;;;;8.20;3.30;;;;;;;;;;5086399;28;20223;-70
2024/01/09 09:19:57;;;;;;;3.87;2.83;;;;;;;;;;5070552;28;20204;-70
2024/01/09 09:22:25;;;;;;;9.83;4.13;;;;;;;;;;5068055;28;20182;-71
2024/01/09 09:24:52;;;;;;;7.03;3.50;;;;;;;;;;5067484;28;20700;-71
2024/01/09 09:27:18;;;;;;;8.97;3.07;;;;;;;;;;5069499;28;20205;-70
2024/01/09 09:29:44;;;;;;;15.17;5.73;;;;;;;;;;5066723;28;20652;-71
2024/01/09 09:32:10;;;;;;;14.17;3.13;;;;;;;;;;5070024;28;20206;-71
2024/01/09 09:34:38;;;;;;;10.20;3.87;;;;;;;;;;5063166;28;20177;-70
2024/01/09 09:37:04;;;;;;;11.03;5.13;;;;;;;;;;5067534;28;20183;-69
2024/01/09 09:39:30;;;;;;;10.53;3.67;;;;;;;;;;5070362;28;20210;-70
2024/01/09 09:42:00;;;;;;;15.83;4.27;;;;;;;;;;5070612;28;20687;-71
2024/01/09 09:44:27;;;;;;;9.43;5.57;;;;;;;;;;5065443;28;20535;-71
2024/01/09 09:46:54;;;;;;;5.43;2.90;;;;;;;;;;5068543;28;20213;-70
2024/01/09 09:49:23;;;;;;;19.33;5.50;;;;;;;;;;5066058;28;20172;-71
2024/01/09 09:51:50;;;;;;;5.30;2.70;;;;;;;;;;5063484;28;20292;-71
2024/01/09 09:54:17;;;;;;;15.87;4.80;;;;;;;;;;5067010;28;20641;-70
2024/01/09 09:56:44;;;;;;;8.07;3.40;;;;;;;;;;5069508;28;20721;-71
2024/01/09 09:59:13;;;;;;;10.03;4.30;;;;;;;;;;5070203;28;20232;-71
2024/01/09 10:01:42;;;;;;;11.90;5.57;;;;;;;;;;5070069;28;20223;-71
2024/01/09 10:04:16;;;;;;;14.47;4.63;;;;;;;;;;5070826;28;20182;-71
2024/01/09 10:06:44;;;;;;;11.03;4.30;;;;;;;;;;5067312;28;20273;-71
2024/01/09 10:09:14;;;;;;;17.90;5.03;;;;;;;;;;5070513;28;20694;-71
2024/01/09 10:11:40;;;;;;;17.17;7.33;;;;;;;;;;5069778;28;20752;-71
2024/01/09 10:14:09;;;;;;;17.00;6.77;;;;;;;;;;5068868;28;20214;-72
2024/01/09 10:16:53;;;;;;;17.63;7.97;;;;;;;;;;5069727;28;20206;-70
2024/01/09 10:19:19;;;;;;;20.80;7.90;;;;;;;;;;5066435;28;20189;-71
2024/01/09 10:21:45;;;;;;;16.77;7.63;;;;;;;;;;5067406;28;20234;-71
2024/01/09 10:24:12;;;;;;;20.50;8.43;;;;;;;;;;5069972;28;20638;-72
2024/01/09 10:26:38;;;;;;;20.07;6.77;;;;;;;;;;5068428;28;20328;-70
2024/01/09 10:29:04;;;;;;;17.60;6.73;;;;;;;;;;5066191;28;20692;-72
2024/01/09 10:31:31;;;;;;;17.67;7.40;;;;;;;;;;5068425;28;20337;-71
2024/01/09 10:33:57;;;;;;;15.30;7.13;;;;;;;;;;5067774;28;20182;-70
2024/01/09 10:36:23;;;;;;;12.43;6.00;;;;;;;;;;5065293;28;20207;-70
2024/01/09 10:38:49;;;;;;;13.93;6.50;;;;;;;;;;5068997;28;20198;-71
2024/01/09 10:41:20;;;;;;;17.80;7.23;;;;;;;;;;5069104;28;20211;-72
2024/01/09 10:43:49;;;;;;;14.07;7.03;;;;;;;;;;5069695;28;20171;-71
2024/01/09 10:46:15;;;;;;;15.30;6.80;;;;;;;;;;5064088;28;20183;-71
2024/01/09 10:48:41;;;;;;;17.90;6.60;;;;;;;;;;5069369;28;20211;-71
2024/01/09 10:51:08;;;;;;;17.13;6.93;;;;;;;;;;5068577;28;20287;-69
2024/01/09 10:53:35;;;;;;;18.70;7.80;;;;;;;;;;5085246;28;20628;-70
2024/01/09 10:56:03;;;;;;;16.13;7.00;;;;;;;;;;5066578;28;20230;-71
2024/01/09 10:58:29;;;;;;;12.47;6.27;;;;;;;;;;5069188;28;20182;-72
2024/01/09 11:00:55;;;;;;;16.07;7.23;;;;;;;;;;5065603;28;20203;-71
2024/01/09 11:03:21;;;;;;;15.53;6.57;;;;;;;;;;5069848;28;20213;-72
2024/01/09 11:05:50;;;;;;;14.83;7.07;;;;;;;;;;5067206;28;20203;-70
2024/01/09 11:08:18;;;;;;;14.80;6.60;;;;;;;;;;5069167;28;20210;-71
2024/01/09 11:10:44;;;;;;;16.77;6.90;;;;;;;;;;5068995;28;20256;-71
2024/01/09 11:13:12;;;;;;;12.97;6.70;;;;;;;;;;5070046;28;20629;-69
2024/01/09 11:15:44;;;;;;;14.33;5.87;;;;;;;;;;5065997;28;20218;-70
2024/01/09 11:18:13;;;;;;;14.73;6.67;;;;;;;;;;5067607;28;20205;-71
2024/01/09 11:20:39;;;;;;;14.90;7.07;;;;;;;;;;5065505;28;20203;-73
2024/01/09 11:23:05;;;;;;;16.23;6.60;;;;;;;;;;5058174;28;20210;-71
2024/01/09 11:25:32;;;;;;;14.40;6.87;;;;;;;;;;5064637;28;20182;-71
2024/01/09 11:28:00;;;;;;;26.80;10.93;;;;;;;;;;5084065;28;20647;-70
2024/01/09 11:30:27;;;;;;;19.87;9.07;;;;;;;;;;5061936;28;20212;-71
2024/01/09 11:32:53;;;;;;;15.43;7.97;;;;;;;;;;5082184;28;20210;-70
2024/01/09 11:35:21;;;;;;;15.70;6.47;;;;;;;;;;5066599;28;20214;-70
2024/01/09 11:37:55;;;;;;;15.80;5.57;;;;;;;;;;5068227;28;20223;-69
2024/01/09 11:40:22;;;;;;;13.47;5.93;;;;;;;;;;5067561;28;20200;-71
2024/01/09 11:42:51;;;;;;;12.23;6.10;;;;;;;;;;5066227;28;20203;-73
2024/01/09 11:45:26;;;;;;;13.70;6.33;;;;;;;;;;5071651;28;20316;-72
2024/01/09 11:47:53;;;;;;;12.03;6.67;;;;;;;;;;5066911;28;20226;-71
2024/01/09 11:50:19;;;;;;;14.57;7.57;;;;;;;;;;5072625;28;20323;-71
2024/01/09 11:52:47;;;;;;;10.07;6.30;;;;;;;;;;5085325;28;20558;-71
2024/01/09 11:55:14;;;;;;;10.10;5.43;;;;;;;;;;5067855;28;20200;-69
2024/01/09 11:57:41;;;;;;;12.53;6.53;;;;;;;;;;5068627;28;20210;-69
2024/01/09 12:00:08;;;;;;;8.87;5.50;;;;;;;;;;5067001;28;20562;-70
2024/01/09 12:02:36;;;;;;;15.43;6.37;;;;;;;;;;5063380;28;20230;-70
2024/01/09 12:05:03;;;;;;;11.03;6.50;;;;;;;;;;5063322;28;20199;-70
2024/01/09 12:07:29;;;;;;;12.70;5.37;;;;;;;;;;5067899;28;20532;-71
2024/01/09 12:09:55;;;;;;;16.67;5.97;;;;;;;;;;5068401;28;20205;-72
2024/01/09 12:12:25;;;;;;;14.87;5.90;;;;;;;;;;5067931;28;20215;-71
2024/01/09 12:14:55;;;;;;;11.43;5.90;;;;;;;;;;5068223;28;20728;-72
2024/01/09 12:17:27;;;;;;;13.40;5.97;;;;;;;;;;5067847;28;20215;-71
2024/01/09 12:19:53;;;;;;;14.63;5.80;;;;;;;;;;5066236;28;20232;-71
2024/01/09 12:22:22;;;;;;;15.50;6.87;;;;;;;;;;5064445;28;20181;-71
2024/01/09 12:24:52;;;;;;;16.07;6.47;;;;;;;;;;5063509;28;20268;-71
2024/01/09 12:27:23;;;;;;;11.27;5.50;;;;;;;;;;5067970;28;20674;-71
2024/01/09 12:29:49;;;;;;;13.67;6.30;;;;;;;;;;5066808;28;20212;-71
2024/01/09 12:32:15;;;;;;;12.83;5.33;;;;;;;;;;5067306;28;20214;-71
2024/01/09 12:34:41;;;;;;;13.73;5.57;;;;;;;;;;5070190;28;20186;-71
2024/01/09 12:37:08;;;;;;;12.30;5.77;;;;;;;;;;5066869;28;20199;-70
2024/01/09 12:39:37;;;;;;;12.33;6.50;;;;;;;;;;5069373;28;20201;-69
2024/01/09 12:42:10;;;;;;;12.60;5.33;;;;;;;;;;5067737;28;20290;-71
2024/01/09 12:44:41;;;;;;;12.53;5.90;;;;;;;;;;5070833;28;20788;-69
2024/01/09 12:47:11;;;;;;;12.67;5.40;;;;;;;;;;5059963;28;20233;-70
2024/01/09 12:49:43;;;;;;;11.73;5.90;;;;;;;;;;5087046;28;20267;-69
2024/01/09 12:52:10;;;;;;;12.07;6.07;;;;;;;;;;5070493;28;20173;-72
2024/01/09 12:54:36;;;;;;;12.53;5.80;;;;;;;;;;5071849;28;20561;-71
2024/01/09 12:57:02;;;;;;;12.90;6.20;;;;;;;;;;5071396;28;20252;-70
2024/01/09 12:59:28;;;;;;;14.90;6.10;;;;;;;;;;5071554;28;20212;-70
2024/01/09 13:01:54;;;;;;;20.43;7.03;;;;;;;;;;5071445;28;20294;-71
2024/01/09 13:04:20;;;;;;;14.10;6.20;;;;;;;;;;5070694;28;20322;-71
2024/01/09 13:06:47;;;;;;;15.47;6.50;;;;;;;;;;5069768;28;20213;-70
2024/01/09 13:09:13;;;;;;;9.93;5.37;;;;;;;;;;5071949;28;20297;-70
2024/01/09 13:11:40;;;;;;;10.00;5.30;;;;;;;;;;5071829;28;20303;-70
2024/01/09 13:14:06;;;;;;;15.70;6.10;;;;;;;;;;5071276;28;20225;-69
2024/01/09 13:16:32;;;;;;;13.63;6.57;;;;;;;;;;5070865;28;20861;-70
2024/01/09 13:18:58;;;;;;;15.27;6.90;;;;;;;;;;5071211;28;20189;-70
2024/01/09 13:21:24;;;;;;;21.43;7.30;;;;;;;;;;5070042;28;20208;-70
2024/01/09 13:23:50;;;;;;;13.17;5.80;;;;;;;;;;5071073;28;20283;-71
2024/01/09 13:26:16;;;;;;;15.60;6.83;;;;;;;;;;5071140;28;20205;-70
2024/01/09 13:28:42;;;;;;;13.37;6.27;;;;;;;;;;5070599;28;20938;-69
2024/01/09 13:31:11;;;;;;;14.30;6.40;;;;;;;;;;5069642;28;20212;-71
2024/01/09 13:33:37;;;;;;;12.00;6.60;;;;;;;;;;5070977;28;20726;-71
2024/01/09 13:36:05;;;;;;;12.43;5.80;;;;;;;;;;5070658;28;20589;-71
2024/01/09 13:38:31;;;;;;;12.20;5.83;;;;;;;;;;5070070;28;20770;-70
2024/01/09 13:40:57;;;;;;;13.10;6.30;;;;;;;;;;5062681;28;20316;-67
2024/01/09 13:43:23;;;;;;;14.50;6.57;;;;;;;;;;5071461;28;20695;-72
2024/01/09 13:45:54;;;;;;;12.53;6.60;;;;;;;;;;5069693;28;20868;-70
2024/01/09 13:48:23;;;;;;;13.73;6.33;;;;;;;;;;5068909;28;20686;-70
2024/01/09 13:50:49;;;;;;;13.13;6.50;;;;;;;;;;5066424;28;20224;-70
2024/01/09 13:53:15;;;;;;;13.10;6.47;;;;;;;;;;5086057;28;20271;-70
2024/01/09 13:55:46;;;;;;;18.97;6.53;;;;;;;;;;5070699;28;20207;-69
2024/01/09 13:58:12;;;;;;;13.37;6.13;;;;;;;;;;5069751;28;20168;-70
2024/01/09 14:00:38;;;;;;;10.70;6.07;;;;;;;;;;5069830;28;20226;-70
2024/01/09 14:03:04;;;;;;;11.50;5.57;;;;;;;;;;5070379;28;20819;-70
2024/01/09 14:05:30;;;;;;;13.23;5.93;;;;;;;;;;5070199;28;20269;-69
2024/01/09 14:07:56;;;;;;;15.87;7.10;;;;;;;;;;5069590;28;20223;-69
2024/01/09 14:10:22;;;;;;;15.63;6.57;;;;;;;;;;5070352;28;20200;-70
2024/01/09 14:12:48;;;;;;;13.53;6.60;;;;;;;;;;5068436;28;20719;-70
2024/01/09 14:15:16;;;;;;;14.10;5.57;;;;;;;;;;5067538;28;20265;-70
2024/01/09 14:17:42;;;;;;;14.27;5.60;;;;;;;;;;5068585;28;20219;-70
2024/01/09 14:20:09;;;;;;;12.83;6.17;;;;;;;;;;5069431;28;20218;-70
2024/01/09 14:22:36;;;;;;;9.77;5.07;;;;;;;;;;5069222;28;20239;-70
2024/01/09 14:25:02;;;;;;;15.50;5.87;;;;;;;;;;5070212;28;20701;-70
2024/01/09 14:27:28;;;;;;;12.17;5.93;;;;;;;;;;5084984;28;20298;-70
2024/01/09 14:29:55;;;;;;;14.30;5.93;;;;;;;;;;5069344;28;20647;-70
2024/01/09 14:32:21;;;;;;;15.23;6.23;;;;;;;;;;5069797;28;20593;-71